PAL180 RPLL-RPMD
Flight info
| Callsign | PAL180 |
|---|---|
| Flight time | 1h 21m |
| Altitude | 39000 |
| Route | IPATA2R IPATA B462 MASBA W9A BN W9 RIMAR RIMAR2R |
| Aircraft | A346/H-SDE2E3FGHIJ3J4J5M1RWXY/LB1D1 |
Departure
| Time | 2026-05-06 03:20 |
|---|---|
| Airport | Ninoy Aquino International Airport (RPLL) |
Arrival
| Time | 2026-05-06 04:41 |
|---|---|
| Airport | Francisco Bangoy International Airport (RPMD) |
| Time | Latitude | Longitude | Altitude | Speed | Heading |
|---|---|---|---|---|---|
| 2026-05-06 02:55 | 14.51178 | 121.01289 | 90 ft | 0 kts | 217° |
| 2026-05-06 03:07 | 14.51183 | 121.01292 | 91 ft | 0 kts | 217° |
| 2026-05-06 03:07 | 14.51187 | 121.01296 | 90 ft | 2 kts | 217° |
| 2026-05-06 03:07 | 14.51199 | 121.01305 | 90 ft | 2 kts | 217° |
| 2026-05-06 03:08 | 14.51207 | 121.01311 | 90 ft | 2 kts | 216° |
| 2026-05-06 03:08 | 14.51220 | 121.01317 | 91 ft | 2 kts | 176° |
| 2026-05-06 03:08 | 14.51235 | 121.01312 | 90 ft | 2 kts | 142° |
| 2026-05-06 03:08 | 14.51239 | 121.01308 | 90 ft | 1 kts | 133° |
| 2026-05-06 03:09 | 14.51241 | 121.01305 | 90 ft | 0 kts | 134° |
| 2026-05-06 03:11 | 14.51241 | 121.01306 | 90 ft | 1 kts | 134° |
| 2026-05-06 03:11 | 14.51224 | 121.01324 | 90 ft | 3 kts | 135° |
| 2026-05-06 03:12 | 14.51193 | 121.01354 | 90 ft | 8 kts | 135° |
| 2026-05-06 03:12 | 14.51146 | 121.01403 | 90 ft | 11 kts | 135° |
| 2026-05-06 03:12 | 14.51084 | 121.01466 | 90 ft | 13 kts | 135° |
| 2026-05-06 03:12 | 14.51011 | 121.01541 | 90 ft | 15 kts | 135° |
| 2026-05-06 03:13 | 14.50949 | 121.01608 | 90 ft | 11 kts | 134° |
| 2026-05-06 03:13 | 14.50904 | 121.01650 | 90 ft | 6 kts | 151° |
| 2026-05-06 03:13 | 14.50856 | 121.01639 | 90 ft | 9 kts | 224° |
| 2026-05-06 03:13 | 14.50813 | 121.01576 | 90 ft | 12 kts | 239° |
| 2026-05-06 03:14 | 14.50766 | 121.01494 | 90 ft | 14 kts | 239° |
| 2026-05-06 03:14 | 14.50713 | 121.01399 | 90 ft | 16 kts | 240° |
| 2026-05-06 03:14 | 14.50669 | 121.01318 | 90 ft | 12 kts | 239° |
| 2026-05-06 03:14 | 14.50620 | 121.01232 | 90 ft | 14 kts | 239° |
| 2026-05-06 03:15 | 14.50565 | 121.01131 | 90 ft | 16 kts | 240° |
| 2026-05-06 03:15 | 14.50506 | 121.01025 | 90 ft | 17 kts | 240° |
| 2026-05-06 03:15 | 14.50441 | 121.00909 | 90 ft | 19 kts | 240° |
| 2026-05-06 03:15 | 14.50372 | 121.00785 | 90 ft | 20 kts | 240° |
| 2026-05-06 03:16 | 14.50298 | 121.00654 | 90 ft | 21 kts | 240° |
| 2026-05-06 03:16 | 14.50223 | 121.00517 | 90 ft | 18 kts | 241° |
| 2026-05-06 03:16 | 14.50172 | 121.00424 | 90 ft | 15 kts | 240° |
| 2026-05-06 03:16 | 14.50115 | 121.00322 | 90 ft | 17 kts | 239° |
| 2026-05-06 03:17 | 14.50052 | 121.00212 | 90 ft | 18 kts | 240° |
| 2026-05-06 03:17 | 14.49993 | 121.00102 | 90 ft | 15 kts | 241° |
| 2026-05-06 03:17 | 14.49940 | 121.00005 | 90 ft | 14 kts | 238° |
| 2026-05-06 03:17 | 14.49893 | 120.99970 | 91 ft | 3 kts | 179° |
| 2026-05-06 03:18 | 14.49889 | 120.99970 | 91 ft | 0 kts | 172° |
| 2026-05-06 03:18 | 14.49882 | 120.99972 | 91 ft | 2 kts | 169° |
| 2026-05-06 03:18 | 14.49851 | 120.99983 | 91 ft | 6 kts | 157° |
| 2026-05-06 03:18 | 14.49809 | 121.00012 | 91 ft | 7 kts | 117° |
| 2026-05-06 03:19 | 14.49822 | 121.00077 | 91 ft | 11 kts | 66° |
| 2026-05-06 03:19 | 14.49890 | 121.00203 | 91 ft | 47 kts | 60° |
| 2026-05-06 03:19 | 14.50194 | 121.00752 | 91 ft | 125 kts | 60° |
| 2026-05-06 03:19 | 14.50736 | 121.01732 | 133 ft | 182 kts | 62° |
| 2026-05-06 03:20 | 14.52009 | 121.03984 | 1567 ft | 183 kts | 62° |
| 2026-05-06 03:20 | 14.52631 | 121.05102 | 2252 ft | 182 kts | 62° |
| 2026-05-06 03:20 | 14.53292 | 121.06291 | 2562 ft | 197 kts | 62° |
| 2026-05-06 03:21 | 14.54006 | 121.07573 | 2859 ft | 214 kts | 62° |
| 2026-05-06 03:21 | 14.54781 | 121.08965 | 3139 ft | 234 kts | 62° |
| 2026-05-06 03:21 | 14.55537 | 121.10548 | 3477 ft | 253 kts | 78° |
| 2026-05-06 03:21 | 14.55405 | 121.12347 | 4066 ft | 261 kts | 114° |
| 2026-05-06 03:22 | 14.54264 | 121.13768 | 4841 ft | 263 kts | 139° |
| 2026-05-06 03:22 | 14.52840 | 121.14990 | 5538 ft | 269 kts | 137° |
| 2026-05-06 03:22 | 14.51435 | 121.16299 | 6279 ft | 273 kts | 135° |
| 2026-05-06 03:22 | 14.50060 | 121.17627 | 7048 ft | 276 kts | 135° |
| 2026-05-06 03:23 | 14.48663 | 121.19002 | 7774 ft | 279 kts | 135° |
| 2026-05-06 03:23 | 14.47252 | 121.20404 | 8480 ft | 283 kts | 134° |
| 2026-05-06 03:23 | 14.45843 | 121.21812 | 9168 ft | 286 kts | 135° |
| 2026-05-06 03:23 | 14.44419 | 121.23239 | 9859 ft | 290 kts | 135° |
| 2026-05-06 03:24 | 14.42961 | 121.24703 | 10433 ft | 296 kts | 134° |
| 2026-05-06 03:24 | 14.41435 | 121.26235 | 10751 ft | 313 kts | 134° |
| 2026-05-06 03:24 | 14.39846 | 121.27833 | 11037 ft | 329 kts | 134° |
| 2026-05-06 03:24 | 14.38160 | 121.29527 | 11337 ft | 346 kts | 135° |
| 2026-05-06 03:25 | 14.36370 | 121.31326 | 11606 ft | 362 kts | 134° |
| 2026-05-06 03:25 | 14.34525 | 121.33179 | 11862 ft | 377 kts | 134° |
| 2026-05-06 03:25 | 14.32640 | 121.35074 | 12382 ft | 385 kts | 134° |
| 2026-05-06 03:25 | 14.30709 | 121.37013 | 13015 ft | 388 kts | 134° |
| 2026-05-06 03:26 | 14.28761 | 121.38971 | 13637 ft | 391 kts | 135° |
| 2026-05-06 03:26 | 14.26801 | 121.40940 | 14259 ft | 395 kts | 135° |
| 2026-05-06 03:26 | 14.24826 | 121.42924 | 14826 ft | 398 kts | 135° |
| 2026-05-06 03:26 | 14.22837 | 121.44922 | 15407 ft | 402 kts | 135° |
| 2026-05-06 03:27 | 14.20845 | 121.46921 | 15972 ft | 405 kts | 135° |
| 2026-05-06 03:27 | 14.18816 | 121.48956 | 16507 ft | 408 kts | 135° |
| 2026-05-06 03:27 | 14.16759 | 121.51021 | 17063 ft | 411 kts | 135° |
| 2026-05-06 03:27 | 14.14727 | 121.53059 | 17575 ft | 414 kts | 135° |
| 2026-05-06 03:28 | 14.12629 | 121.55162 | 18109 ft | 417 kts | 135° |
| 2026-05-06 03:28 | 14.10547 | 121.57249 | 18623 ft | 420 kts | 135° |
| 2026-05-06 03:28 | 14.08442 | 121.59359 | 19128 ft | 423 kts | 135° |
| 2026-05-06 03:28 | 14.06308 | 121.61498 | 19616 ft | 426 kts | 135° |
| 2026-05-06 03:29 | 14.04182 | 121.63628 | 20090 ft | 429 kts | 135° |
| 2026-05-06 03:29 | 14.02025 | 121.65791 | 20556 ft | 433 kts | 135° |
| 2026-05-06 03:29 | 13.99882 | 121.67952 | 20998 ft | 436 kts | 135° |
| 2026-05-06 03:29 | 13.97680 | 121.70172 | 21444 ft | 440 kts | 135° |
| 2026-05-06 03:30 | 13.95496 | 121.72367 | 21894 ft | 443 kts | 136° |
| 2026-05-06 03:30 | 13.93300 | 121.74568 | 22336 ft | 446 kts | 136° |
| 2026-05-06 03:30 | 13.91053 | 121.76816 | 22787 ft | 449 kts | 136° |
| 2026-05-06 03:30 | 13.88825 | 121.79041 | 23226 ft | 451 kts | 136° |
| 2026-05-06 03:31 | 13.86600 | 121.81362 | 23656 ft | 455 kts | 133° |
| 2026-05-06 03:31 | 13.84493 | 121.83804 | 24087 ft | 457 kts | 130° |
| 2026-05-06 03:31 | 13.82437 | 121.86302 | 24506 ft | 460 kts | 130° |
| 2026-05-06 03:31 | 13.80349 | 121.88856 | 24911 ft | 464 kts | 130° |
| 2026-05-06 03:32 | 13.78283 | 121.91388 | 25314 ft | 467 kts | 130° |
| 2026-05-06 03:32 | 13.76176 | 121.93971 | 25718 ft | 470 kts | 130° |
| 2026-05-06 03:32 | 13.74072 | 121.96548 | 26112 ft | 473 kts | 130° |
| 2026-05-06 03:32 | 13.71947 | 121.99149 | 26493 ft | 476 kts | 130° |
| 2026-05-06 03:33 | 13.69801 | 122.01776 | 26869 ft | 479 kts | 130° |
| 2026-05-06 03:33 | 13.67632 | 122.04430 | 27235 ft | 482 kts | 130° |
| 2026-05-06 03:33 | 13.65465 | 122.07079 | 27596 ft | 485 kts | 130° |
| 2026-05-06 03:33 | 13.63316 | 122.09707 | 27960 ft | 488 kts | 130° |
| 2026-05-06 03:34 | 13.61097 | 122.12421 | 28334 ft | 491 kts | 130° |
| 2026-05-06 03:34 | 13.58885 | 122.15124 | 28825 ft | 490 kts | 130° |
| 2026-05-06 03:34 | 13.56686 | 122.17811 | 29410 ft | 488 kts | 130° |
| 2026-05-06 03:34 | 13.54522 | 122.20454 | 29962 ft | 487 kts | 130° |
| 2026-05-06 03:35 | 13.52338 | 122.23122 | 30489 ft | 486 kts | 130° |
| 2026-05-06 03:35 | 13.50149 | 122.25794 | 31004 ft | 485 kts | 130° |
| 2026-05-06 03:35 | 13.47996 | 122.28423 | 31505 ft | 484 kts | 130° |
| 2026-05-06 03:35 | 13.45798 | 122.31104 | 31999 ft | 484 kts | 130° |
| 2026-05-06 03:36 | 13.43639 | 122.33737 | 32490 ft | 483 kts | 130° |
| 2026-05-06 03:36 | 13.41452 | 122.36404 | 33011 ft | 483 kts | 130° |
| 2026-05-06 03:36 | 13.39293 | 122.39037 | 33555 ft | 482 kts | 130° |
| 2026-05-06 03:36 | 13.37119 | 122.41688 | 34129 ft | 480 kts | 130° |
| 2026-05-06 03:37 | 13.34967 | 122.44312 | 34691 ft | 478 kts | 130° |
| 2026-05-06 03:37 | 13.32849 | 122.46892 | 35237 ft | 476 kts | 130° |
| 2026-05-06 03:37 | 13.30710 | 122.49495 | 35757 ft | 474 kts | 130° |
| 2026-05-06 03:37 | 13.28605 | 122.52058 | 36206 ft | 472 kts | 131° |
| 2026-05-06 03:38 | 13.26474 | 122.54651 | 36606 ft | 472 kts | 131° |
| 2026-05-06 03:38 | 13.24362 | 122.57220 | 36959 ft | 471 kts | 131° |
| 2026-05-06 03:38 | 13.22239 | 122.59801 | 37273 ft | 472 kts | 131° |
| 2026-05-06 03:38 | 13.20091 | 122.62412 | 37531 ft | 473 kts | 131° |
| 2026-05-06 03:39 | 13.17961 | 122.64999 | 37753 ft | 474 kts | 131° |
| 2026-05-06 03:39 | 13.15840 | 122.67584 | 37960 ft | 476 kts | 131° |
| 2026-05-06 03:39 | 13.13691 | 122.70212 | 38159 ft | 477 kts | 131° |
| 2026-05-06 03:39 | 13.11566 | 122.72805 | 38360 ft | 478 kts | 131° |
| 2026-05-06 03:40 | 13.09408 | 122.75433 | 38586 ft | 478 kts | 131° |
| 2026-05-06 03:40 | 13.07272 | 122.78030 | 38812 ft | 479 kts | 131° |
| 2026-05-06 03:40 | 13.02947 | 122.83278 | 38864 ft | 480 kts | 131° |
| 2026-05-06 03:41 | 12.98612 | 122.88535 | 38879 ft | 481 kts | 131° |
| 2026-05-06 03:41 | 12.94263 | 122.93803 | 38882 ft | 481 kts | 131° |
| 2026-05-06 03:42 | 12.89951 | 122.99025 | 38883 ft | 482 kts | 131° |
| 2026-05-06 03:42 | 12.85577 | 123.04286 | 38884 ft | 482 kts | 131° |
| 2026-05-06 03:43 | 12.81196 | 123.09560 | 38884 ft | 482 kts | 131° |
| 2026-05-06 03:43 | 12.76828 | 123.14831 | 38885 ft | 481 kts | 131° |
| 2026-05-06 03:44 | 12.72496 | 123.20062 | 38885 ft | 480 kts | 131° |
| 2026-05-06 03:44 | 12.68176 | 123.25280 | 38885 ft | 479 kts | 131° |
| 2026-05-06 03:45 | 12.63837 | 123.30517 | 38885 ft | 479 kts | 131° |
| 2026-05-06 03:45 | 12.59526 | 123.35719 | 38885 ft | 479 kts | 131° |
| 2026-05-06 03:46 | 12.55207 | 123.40928 | 38885 ft | 479 kts | 131° |
| 2026-05-06 03:46 | 12.50865 | 123.46166 | 38884 ft | 479 kts | 131° |
| 2026-05-06 03:47 | 12.46533 | 123.51390 | 38884 ft | 478 kts | 131° |
| 2026-05-06 03:47 | 12.42106 | 123.56595 | 38886 ft | 477 kts | 134° |
| 2026-05-06 03:48 | 12.37312 | 123.61245 | 38888 ft | 476 kts | 141° |
| 2026-05-06 03:48 | 12.31992 | 123.65356 | 38889 ft | 475 kts | 147° |
| 2026-05-06 03:49 | 12.26318 | 123.68832 | 38892 ft | 474 kts | 153° |
| 2026-05-06 03:49 | 12.20488 | 123.72062 | 38889 ft | 474 kts | 153° |
| 2026-05-06 03:50 | 12.14652 | 123.75279 | 38887 ft | 474 kts | 153° |
| 2026-05-06 03:50 | 12.08848 | 123.78477 | 38884 ft | 474 kts | 153° |
| 2026-05-06 03:51 | 12.03042 | 123.81677 | 38874 ft | 474 kts | 153° |
| 2026-05-06 03:51 | 11.97207 | 123.84892 | 38866 ft | 473 kts | 153° |
| 2026-05-06 03:52 | 11.91403 | 123.88087 | 38864 ft | 473 kts | 153° |
| 2026-05-06 03:52 | 11.85568 | 123.91286 | 38864 ft | 473 kts | 153° |
| 2026-05-06 03:53 | 11.79747 | 123.94473 | 38863 ft | 472 kts | 152° |
| 2026-05-06 03:53 | 11.73971 | 123.97643 | 38864 ft | 472 kts | 152° |
| 2026-05-06 03:54 | 11.68194 | 124.00818 | 38863 ft | 471 kts | 152° |
| 2026-05-06 03:54 | 11.62376 | 124.04012 | 38863 ft | 471 kts | 152° |
| 2026-05-06 03:55 | 11.56547 | 124.07213 | 38864 ft | 471 kts | 152° |
| 2026-05-06 03:55 | 11.50793 | 124.10369 | 38862 ft | 470 kts | 152° |
| 2026-05-06 03:56 | 11.45012 | 124.13540 | 38863 ft | 470 kts | 152° |
| 2026-05-06 03:56 | 11.39204 | 124.16724 | 38863 ft | 470 kts | 152° |
| 2026-05-06 03:57 | 11.33426 | 124.19891 | 38862 ft | 470 kts | 152° |
| 2026-05-06 03:57 | 11.27610 | 124.23079 | 38864 ft | 470 kts | 152° |
| 2026-05-06 03:58 | 11.21825 | 124.26251 | 38864 ft | 471 kts | 152° |
| 2026-05-06 03:58 | 11.16037 | 124.29421 | 38867 ft | 471 kts | 152° |
| 2026-05-06 03:59 | 11.10229 | 124.32601 | 38870 ft | 471 kts | 152° |
| 2026-05-06 03:59 | 11.04435 | 124.35754 | 38870 ft | 471 kts | 152° |
| 2026-05-06 04:00 | 10.98595 | 124.38886 | 38870 ft | 472 kts | 152° |
| 2026-05-06 04:00 | 10.92747 | 124.42031 | 38869 ft | 472 kts | 152° |
| 2026-05-06 04:01 | 10.86967 | 124.45140 | 38867 ft | 473 kts | 152° |
| 2026-05-06 04:01 | 10.81106 | 124.48284 | 38865 ft | 472 kts | 152° |
| 2026-05-06 04:02 | 10.75289 | 124.51414 | 38860 ft | 472 kts | 152° |
| 2026-05-06 04:02 | 10.69449 | 124.54567 | 38858 ft | 471 kts | 152° |
| 2026-05-06 04:03 | 10.63622 | 124.57723 | 38849 ft | 471 kts | 152° |
| 2026-05-06 04:03 | 10.57790 | 124.60885 | 38842 ft | 472 kts | 151° |
| 2026-05-06 04:04 | 10.51973 | 124.64040 | 38844 ft | 474 kts | 151° |
| 2026-05-06 04:04 | 10.46121 | 124.67232 | 38843 ft | 474 kts | 151° |
| 2026-05-06 04:05 | 10.40278 | 124.70428 | 38843 ft | 473 kts | 151° |
| 2026-05-06 04:05 | 10.34465 | 124.73586 | 38842 ft | 473 kts | 151° |
| 2026-05-06 04:06 | 10.28625 | 124.76751 | 38844 ft | 473 kts | 151° |
| 2026-05-06 04:06 | 10.22754 | 124.79931 | 38844 ft | 474 kts | 151° |
| 2026-05-06 04:07 | 10.16943 | 124.83076 | 38843 ft | 475 kts | 151° |
| 2026-05-06 04:07 | 10.11039 | 124.86271 | 38842 ft | 476 kts | 151° |
| 2026-05-06 04:08 | 10.05222 | 124.89417 | 38843 ft | 475 kts | 151° |
| 2026-05-06 04:08 | 9.99366 | 124.92582 | 38845 ft | 475 kts | 151° |
| 2026-05-06 04:09 | 9.93544 | 124.95727 | 38846 ft | 474 kts | 151° |
| 2026-05-06 04:09 | 9.87701 | 124.98882 | 38847 ft | 475 kts | 151° |
| 2026-05-06 04:10 | 9.81825 | 125.02043 | 38851 ft | 475 kts | 151° |
| 2026-05-06 04:10 | 9.76001 | 125.05184 | 38853 ft | 475 kts | 151° |
| 2026-05-06 04:11 | 9.70132 | 125.08346 | 38851 ft | 475 kts | 151° |
| 2026-05-06 04:11 | 9.64302 | 125.11491 | 38849 ft | 474 kts | 151° |
| 2026-05-06 04:12 | 9.58476 | 125.14626 | 38844 ft | 474 kts | 151° |
| 2026-05-06 04:12 | 9.52605 | 125.17745 | 38842 ft | 474 kts | 152° |
| 2026-05-06 04:13 | 9.46745 | 125.20863 | 38845 ft | 474 kts | 151° |
| 2026-05-06 04:13 | 9.40934 | 125.23959 | 38848 ft | 474 kts | 151° |
| 2026-05-06 04:14 | 9.35088 | 125.27074 | 38148 ft | 476 kts | 151° |
| 2026-05-06 04:14 | 9.32146 | 125.28643 | 37519 ft | 476 kts | 152° |
| 2026-05-06 04:14 | 9.29206 | 125.30210 | 36921 ft | 475 kts | 152° |
| 2026-05-06 04:15 | 9.26285 | 125.31766 | 36317 ft | 474 kts | 152° |
| 2026-05-06 04:15 | 9.23351 | 125.33328 | 35656 ft | 474 kts | 152° |
| 2026-05-06 04:15 | 9.20468 | 125.34863 | 35024 ft | 474 kts | 152° |
| 2026-05-06 04:15 | 9.17524 | 125.36432 | 34388 ft | 473 kts | 152° |
| 2026-05-06 04:16 | 9.14608 | 125.37985 | 33775 ft | 473 kts | 152° |
| 2026-05-06 04:16 | 9.11692 | 125.39539 | 33164 ft | 472 kts | 152° |
| 2026-05-06 04:16 | 9.08816 | 125.41072 | 32553 ft | 471 kts | 152° |
| 2026-05-06 04:16 | 9.05917 | 125.42616 | 31954 ft | 472 kts | 152° |
| 2026-05-06 04:17 | 9.03007 | 125.44163 | 31327 ft | 473 kts | 152° |
| 2026-05-06 04:17 | 9.00054 | 125.45685 | 30673 ft | 474 kts | 154° |
| 2026-05-06 04:17 | 8.97019 | 125.46956 | 30021 ft | 476 kts | 159° |
| 2026-05-06 04:17 | 8.93837 | 125.47969 | 29347 ft | 477 kts | 164° |
| 2026-05-06 04:18 | 8.90607 | 125.48689 | 28695 ft | 479 kts | 169° |
| 2026-05-06 04:18 | 8.87281 | 125.49139 | 28036 ft | 480 kts | 173° |
| 2026-05-06 04:18 | 8.83968 | 125.49480 | 27409 ft | 480 kts | 173° |
| 2026-05-06 04:18 | 8.80602 | 125.49806 | 26990 ft | 475 kts | 173° |
| 2026-05-06 04:19 | 8.77336 | 125.50125 | 26514 ft | 471 kts | 173° |
| 2026-05-06 04:19 | 8.74064 | 125.50450 | 26079 ft | 467 kts | 173° |
| 2026-05-06 04:19 | 8.70829 | 125.50775 | 25563 ft | 465 kts | 173° |
| 2026-05-06 04:19 | 8.67622 | 125.51101 | 25106 ft | 461 kts | 173° |
| 2026-05-06 04:20 | 8.64396 | 125.51430 | 24613 ft | 458 kts | 173° |
| 2026-05-06 04:20 | 8.61232 | 125.51756 | 24141 ft | 455 kts | 173° |
| 2026-05-06 04:20 | 8.58083 | 125.52077 | 23712 ft | 450 kts | 172° |
| 2026-05-06 04:20 | 8.54969 | 125.52393 | 23295 ft | 446 kts | 172° |
| 2026-05-06 04:21 | 8.51914 | 125.52701 | 22899 ft | 441 kts | 172° |
| 2026-05-06 04:21 | 8.48876 | 125.52977 | 22515 ft | 436 kts | 173° |
| 2026-05-06 04:21 | 8.45855 | 125.53240 | 22132 ft | 432 kts | 173° |
| 2026-05-06 04:21 | 8.42857 | 125.53503 | 21762 ft | 428 kts | 173° |
| 2026-05-06 04:22 | 8.39898 | 125.53766 | 21368 ft | 425 kts | 173° |
| 2026-05-06 04:22 | 8.36942 | 125.54030 | 20965 ft | 422 kts | 173° |
| 2026-05-06 04:22 | 8.34044 | 125.54289 | 20567 ft | 420 kts | 173° |
| 2026-05-06 04:23 | 8.28237 | 125.54811 | 19786 ft | 414 kts | 173° |
| 2026-05-06 04:23 | 8.25369 | 125.55070 | 19388 ft | 412 kts | 173° |
| 2026-05-06 04:23 | 8.22520 | 125.55326 | 18985 ft | 410 kts | 173° |
| 2026-05-06 04:23 | 8.19684 | 125.55582 | 18570 ft | 408 kts | 173° |
| 2026-05-06 04:24 | 8.16832 | 125.55840 | 18148 ft | 406 kts | 173° |
| 2026-05-06 04:24 | 8.14049 | 125.56091 | 17734 ft | 404 kts | 173° |
| 2026-05-06 04:24 | 8.11238 | 125.56346 | 17320 ft | 403 kts | 173° |
| 2026-05-06 04:24 | 8.08434 | 125.56600 | 16898 ft | 401 kts | 172° |
| 2026-05-06 04:25 | 8.05671 | 125.56851 | 16481 ft | 399 kts | 173° |
| 2026-05-06 04:25 | 8.02919 | 125.57098 | 16078 ft | 397 kts | 172° |
| 2026-05-06 04:25 | 8.00151 | 125.57341 | 15682 ft | 395 kts | 174° |
| 2026-05-06 04:25 | 7.97397 | 125.57334 | 15266 ft | 395 kts | 182° |
| 2026-05-06 04:26 | 7.94690 | 125.56960 | 14861 ft | 395 kts | 190° |
| 2026-05-06 04:26 | 7.92000 | 125.56262 | 14456 ft | 394 kts | 194° |
| 2026-05-06 04:26 | 7.89379 | 125.55491 | 14050 ft | 392 kts | 195° |
| 2026-05-06 04:26 | 7.86748 | 125.54705 | 13658 ft | 390 kts | 195° |
| 2026-05-06 04:27 | 7.84165 | 125.53938 | 13264 ft | 388 kts | 195° |
| 2026-05-06 04:27 | 7.81590 | 125.53178 | 12859 ft | 386 kts | 195° |
| 2026-05-06 04:27 | 7.78986 | 125.52412 | 12446 ft | 383 kts | 195° |
| 2026-05-06 04:27 | 7.76417 | 125.51656 | 12047 ft | 381 kts | 195° |
| 2026-05-06 04:28 | 7.73890 | 125.50916 | 11666 ft | 379 kts | 195° |
| 2026-05-06 04:28 | 7.71374 | 125.50180 | 11265 ft | 377 kts | 195° |
| 2026-05-06 04:28 | 7.68853 | 125.49442 | 10870 ft | 374 kts | 195° |
| 2026-05-06 04:28 | 7.66350 | 125.48708 | 10500 ft | 372 kts | 195° |
| 2026-05-06 04:29 | 7.63879 | 125.47984 | 10288 ft | 362 kts | 195° |
| 2026-05-06 04:29 | 7.61519 | 125.47289 | 10269 ft | 346 kts | 195° |
| 2026-05-06 04:29 | 7.59233 | 125.46617 | 10228 ft | 332 kts | 195° |
| 2026-05-06 04:29 | 7.57074 | 125.45984 | 10207 ft | 317 kts | 195° |
| 2026-05-06 04:30 | 7.54979 | 125.45370 | 10174 ft | 304 kts | 195° |
| 2026-05-06 04:30 | 7.52992 | 125.44790 | 10140 ft | 293 kts | 195° |
| 2026-05-06 04:30 | 7.51031 | 125.44217 | 10101 ft | 288 kts | 195° |
| 2026-05-06 04:30 | 7.49114 | 125.43658 | 9806 ft | 289 kts | 195° |
| 2026-05-06 04:31 | 7.47180 | 125.43093 | 9501 ft | 288 kts | 195° |
| 2026-05-06 04:31 | 7.45231 | 125.42524 | 9199 ft | 287 kts | 195° |
| 2026-05-06 04:31 | 7.43312 | 125.41964 | 8922 ft | 286 kts | 195° |
| 2026-05-06 04:31 | 7.41424 | 125.41413 | 8649 ft | 284 kts | 195° |
| 2026-05-06 04:32 | 7.39503 | 125.40852 | 8367 ft | 283 kts | 195° |
| 2026-05-06 04:32 | 7.37622 | 125.40301 | 8090 ft | 282 kts | 195° |
| 2026-05-06 04:32 | 7.35731 | 125.39751 | 7798 ft | 281 kts | 193° |
| 2026-05-06 04:32 | 7.33812 | 125.39487 | 7508 ft | 278 kts | 178° |
| 2026-05-06 04:33 | 7.31888 | 125.39709 | 7231 ft | 274 kts | 167° |
| 2026-05-06 04:33 | 7.30017 | 125.40109 | 6964 ft | 273 kts | 166° |
| 2026-05-06 04:33 | 7.28180 | 125.40526 | 6694 ft | 272 kts | 166° |
| 2026-05-06 04:33 | 7.26310 | 125.40941 | 6407 ft | 271 kts | 166° |
| 2026-05-06 04:34 | 7.24453 | 125.41344 | 6138 ft | 270 kts | 166° |
| 2026-05-06 04:34 | 7.22637 | 125.41731 | 5875 ft | 268 kts | 166° |
| 2026-05-06 04:34 | 7.20811 | 125.42120 | 5608 ft | 265 kts | 167° |
| 2026-05-06 04:34 | 7.19017 | 125.42499 | 5351 ft | 262 kts | 167° |
| 2026-05-06 04:35 | 7.17220 | 125.42878 | 5101 ft | 259 kts | 167° |
| 2026-05-06 04:35 | 7.15464 | 125.43250 | 4844 ft | 257 kts | 167° |
| 2026-05-06 04:35 | 7.13727 | 125.43617 | 4583 ft | 254 kts | 167° |
| 2026-05-06 04:35 | 7.11981 | 125.43984 | 4321 ft | 251 kts | 167° |
| 2026-05-06 04:36 | 7.10291 | 125.44341 | 4097 ft | 248 kts | 167° |
| 2026-05-06 04:36 | 7.08631 | 125.44690 | 4050 ft | 238 kts | 167° |
| 2026-05-06 04:36 | 7.07030 | 125.45162 | 3851 ft | 238 kts | 154° |
| 2026-05-06 04:36 | 7.05641 | 125.46035 | 3533 ft | 234 kts | 141° |
| 2026-05-06 04:37 | 7.04408 | 125.47081 | 3225 ft | 230 kts | 137° |
| 2026-05-06 04:37 | 7.03216 | 125.48137 | 2934 ft | 226 kts | 137° |
| 2026-05-06 04:37 | 7.02102 | 125.49223 | 2708 ft | 217 kts | 124° |
| 2026-05-06 04:37 | 7.01602 | 125.50580 | 2619 ft | 199 kts | 94° |
| 2026-05-06 04:38 | 7.01798 | 125.51905 | 2561 ft | 191 kts | 67° |
| 2026-05-06 04:38 | 7.02533 | 125.53014 | 2461 ft | 191 kts | 50° |
| 2026-05-06 04:38 | 7.03422 | 125.54025 | 2352 ft | 191 kts | 48° |
| 2026-05-06 04:38 | 7.04302 | 125.55013 | 2193 ft | 182 kts | 48° |
| 2026-05-06 04:39 | 7.05102 | 125.55921 | 2002 ft | 167 kts | 49° |
| 2026-05-06 04:39 | 7.05861 | 125.56790 | 1788 ft | 164 kts | 49° |
| 2026-05-06 04:39 | 7.06607 | 125.57649 | 1578 ft | 163 kts | 49° |
| 2026-05-06 04:39 | 7.07351 | 125.58510 | 1371 ft | 163 kts | 49° |
| 2026-05-06 04:40 | 7.08103 | 125.59381 | 1153 ft | 162 kts | 49° |
| 2026-05-06 04:40 | 7.08843 | 125.60240 | 939 ft | 162 kts | 49° |
| 2026-05-06 04:40 | 7.09581 | 125.61095 | 723 ft | 161 kts | 49° |
| 2026-05-06 04:40 | 7.10322 | 125.61957 | 521 ft | 161 kts | 49° |
| 2026-05-06 04:41 | 7.11049 | 125.62816 | 338 ft | 161 kts | 50° |
| 2026-05-06 04:41 | 7.11777 | 125.63680 | 146 ft | 160 kts | 48° |
| 2026-05-06 04:41 | 7.12426 | 125.64434 | 127 ft | 112 kts | 49° |
| 2026-05-06 04:41 | 7.12793 | 125.64857 | 127 ft | 47 kts | 49° |
| 2026-05-06 04:42 | 7.13012 | 125.65111 | 126 ft | 47 kts | 48° |
| 2026-05-06 04:42 | 7.13202 | 125.65334 | 126 ft | 29 kts | 50° |
| 2026-05-06 04:42 | 7.13300 | 125.65449 | 126 ft | 14 kts | 49° |
| 2026-05-06 04:42 | 7.13357 | 125.65500 | 126 ft | 11 kts | 26° |
| 2026-05-06 04:43 | 7.13426 | 125.65517 | 126 ft | 6 kts | 26° |
| 2026-05-06 04:43 | 7.13442 | 125.65558 | 126 ft | 7 kts | 110° |
| 2026-05-06 04:43 | 7.13399 | 125.65569 | 126 ft | 7 kts | 218° |
| 2026-05-06 04:43 | 7.13355 | 125.65514 | 126 ft | 11 kts | 232° |
| 2026-05-06 04:44 | 7.13303 | 125.65449 | 126 ft | 12 kts | 231° |
| 2026-05-06 04:44 | 7.13247 | 125.65386 | 126 ft | 11 kts | 227° |
| 2026-05-06 04:44 | 7.13192 | 125.65322 | 126 ft | 11 kts | 230° |
| 2026-05-06 04:44 | 7.13136 | 125.65256 | 126 ft | 12 kts | 227° |
| 2026-05-06 04:45 | 7.13077 | 125.65191 | 126 ft | 12 kts | 228° |
| 2026-05-06 04:45 | 7.13019 | 125.65125 | 126 ft | 12 kts | 230° |
| 2026-05-06 04:45 | 7.12964 | 125.65059 | 126 ft | 12 kts | 230° |
| 2026-05-06 04:45 | 7.12912 | 125.64997 | 126 ft | 9 kts | 229° |
| 2026-05-06 04:46 | 7.12886 | 125.64954 | 126 ft | 6 kts | 257° |
| 2026-05-06 04:46 | 7.12898 | 125.64913 | 126 ft | 6 kts | 307° |
| 2026-05-06 04:46 | 7.12933 | 125.64876 | 126 ft | 7 kts | 316° |
| 2026-05-06 04:46 | 7.12976 | 125.64838 | 126 ft | 8 kts | 319° |
| 2026-05-06 04:47 | 7.13024 | 125.64797 | 126 ft | 9 kts | 320° |
| 2026-05-06 04:47 | 7.13068 | 125.64759 | 126 ft | 4 kts | 319° |
| 2026-05-06 04:47 | 7.13087 | 125.64742 | 126 ft | 2 kts | 319° |
| 2026-05-06 04:47 | 7.13088 | 125.64741 | 126 ft | 0 kts | 319° |